createdAt,value
2019-05-30T00:01:50.655Z,5.65
2019-05-30T00:06:43.391Z,5.83
2019-05-30T00:11:35.777Z,5.92
2019-05-30T00:16:28.195Z,5.30
2019-05-30T00:21:20.418Z,6.95
2019-05-30T00:26:12.808Z,6.72
2019-05-30T00:31:05.258Z,5.47
2019-05-30T00:35:57.707Z,5.10
2019-05-30T00:40:50.409Z,4.70
2019-05-30T00:45:43.313Z,5.40
2019-05-30T00:50:36.094Z,5.50
2019-05-30T00:55:28.641Z,6.00
2019-05-30T01:00:21.040Z,5.77
2019-05-30T01:05:13.660Z,6.25
2019-05-30T01:10:07.922Z,6.87
2019-05-30T01:15:01.118Z,5.70
2019-05-30T01:19:53.799Z,5.50
2019-05-30T01:24:46.549Z,5.37
2019-05-30T01:29:38.779Z,5.27
2019-05-30T01:34:30.907Z,5.77
2019-05-30T01:39:23.321Z,5.00
2019-05-30T01:44:15.674Z,5.70
2019-05-30T01:49:08.741Z,6.07
2019-05-30T01:54:02.563Z,5.70
2019-05-30T01:58:56.287Z,5.60
2019-05-30T02:03:49.153Z,4.90
2019-05-30T02:08:41.448Z,4.97
2019-05-30T02:13:34.039Z,5.63
2019-05-30T02:18:26.833Z,4.77
2019-05-30T02:23:19.238Z,5.07
2019-05-30T02:28:11.629Z,5.00
2019-05-30T02:33:05.293Z,5.00
2019-05-30T02:37:58.279Z,4.90
2019-05-30T02:42:50.635Z,4.93
2019-05-30T02:47:43.334Z,4.70
2019-05-30T02:52:36.330Z,5.00
2019-05-30T02:57:31.711Z,5.40
2019-05-30T03:02:24.641Z,5.17
2019-05-30T03:07:17.562Z,6.10
2019-05-30T03:12:11.456Z,5.90
2019-05-30T03:17:07.207Z,5.20
2019-05-30T03:21:59.067Z,5.10
2019-05-30T03:26:51.361Z,5.27
2019-05-30T03:31:45.360Z,5.03
2019-05-30T03:36:37.539Z,4.97
2019-05-30T03:41:30.282Z,4.83
2019-05-30T03:46:26.172Z,5.20
2019-05-30T03:51:20.692Z,6.28
2019-05-30T03:56:16.271Z,5.70
2019-05-30T04:01:14.874Z,5.93
2019-05-30T04:06:12.357Z,5.50
2019-05-30T04:11:08.103Z,5.20
2019-05-30T04:16:00.969Z,5.10
2019-05-30T04:20:53.684Z,5.43
2019-05-30T04:25:46.090Z,5.13
2019-05-30T04:30:38.457Z,5.20
2019-05-30T04:35:31.121Z,5.27
2019-05-30T04:40:23.737Z,5.37
2019-05-30T04:45:18.034Z,5.90
2019-05-30T04:50:12.192Z,5.97
2019-05-30T04:55:10.544Z,5.85
2019-05-30T05:00:02.646Z,5.87
2019-05-30T05:04:54.839Z,6.00
2019-05-30T05:09:47.661Z,6.40
2019-05-30T05:14:40.347Z,7.83
2019-05-30T05:19:32.705Z,7.83
2019-05-30T05:24:24.733Z,7.80
2019-05-30T05:29:17.999Z,7.72
2019-05-30T05:34:10.621Z,7.58
2019-05-30T05:39:03.000Z,7.33
2019-05-30T05:43:55.639Z,7.70
2019-05-30T05:48:48.241Z,7.50
2019-05-30T05:53:42.322Z,7.55
2019-05-30T05:58:34.512Z,7.60
2019-05-30T06:03:28.284Z,7.10
2019-05-30T06:08:21.604Z,7.20
2019-05-30T06:13:14.028Z,7.45
2019-05-30T06:18:06.556Z,6.78
2019-05-30T06:22:59.203Z,6.90
2019-05-30T06:27:51.990Z,6.40
2019-05-30T06:32:44.350Z,6.22
2019-05-30T06:37:36.753Z,5.97
2019-05-30T06:42:30.283Z,5.55
2019-05-30T06:47:24.375Z,7.25
2019-05-30T06:52:17.153Z,5.83
2019-05-30T06:57:09.671Z,5.28
2019-05-30T07:02:02.532Z,5.37
2019-05-30T07:06:55.727Z,5.67
2019-05-30T07:11:48.457Z,4.40
2019-05-30T07:16:41.165Z,3.52
2019-05-30T07:21:33.987Z,4.00
2019-05-30T07:26:27.725Z,4.00
2019-05-30T07:31:35.418Z,8.65
2019-05-30T07:36:28.222Z,5.60
2019-05-30T07:41:20.961Z,5.37
2019-05-30T07:46:13.370Z,4.87
2019-05-30T07:51:05.849Z,8.40
2019-05-30T07:55:58.732Z,7.33
2019-05-30T08:00:51.282Z,5.85
2019-05-30T08:05:44.044Z,5.58
2019-05-30T08:10:36.663Z,4.90
2019-05-30T08:15:29.251Z,4.65
2019-05-30T08:20:22.543Z,4.00
2019-05-30T08:25:15.287Z,2.87
2019-05-30T08:30:09.145Z,2.75
2019-05-30T08:35:01.484Z,2.37
2019-05-30T08:39:53.989Z,2.72
2019-05-30T08:44:46.645Z,2.87
2019-05-30T08:49:40.321Z,2.47
2019-05-30T08:54:34.297Z,2.98
2019-05-30T08:59:26.874Z,2.90
2019-05-30T09:04:19.447Z,3.42
2019-05-30T09:09:11.871Z,2.60
2019-05-30T09:14:05.291Z,2.45
2019-05-30T09:18:57.933Z,2.20
2019-05-30T09:23:50.492Z,2.17
2019-05-30T09:28:44.241Z,2.25
2019-05-30T09:33:36.863Z,2.62
2019-05-30T09:38:29.503Z,2.25
2019-05-30T09:43:22.026Z,2.25
2019-05-30T09:48:14.846Z,1.90
2019-05-30T09:53:07.457Z,2.17
2019-05-30T09:58:00.381Z,2.20
2019-05-30T10:02:52.732Z,1.90
2019-05-30T10:07:45.882Z,1.82
2019-05-30T10:12:39.280Z,2.05
2019-05-30T10:17:32.040Z,2.08
2019-05-30T10:22:24.472Z,2.02
2019-05-30T10:27:16.602Z,2.10
2019-05-30T10:32:08.694Z,2.37
2019-05-30T10:37:00.951Z,2.25
2019-05-30T10:41:53.383Z,2.37
2019-05-30T10:46:46.992Z,2.00
2019-05-30T10:51:40.159Z,1.90
2019-05-30T10:56:32.730Z,1.67
2019-05-30T11:01:25.055Z,1.82
2019-05-30T11:06:26.229Z,1.82
2019-05-30T11:11:18.789Z,1.90
2019-05-30T11:16:11.499Z,1.80
2019-05-30T11:21:04.238Z,1.80
2019-05-30T11:25:56.753Z,1.82
2019-05-30T11:30:48.925Z,2.00
2019-05-30T11:35:41.358Z,2.10
2019-05-30T11:40:33.949Z,1.90
2019-05-30T11:45:26.621Z,2.05
2019-05-30T11:50:20.665Z,1.75
2019-05-30T11:55:13.404Z,1.67
2019-05-30T12:00:08.469Z,1.77
2019-05-30T12:05:00.946Z,1.45
2019-05-30T12:09:53.128Z,1.65
2019-05-30T12:14:45.603Z,1.50
2019-05-30T12:19:38.266Z,1.55
2019-05-30T12:24:31.073Z,1.60
2019-05-30T12:29:23.735Z,1.30
2019-05-30T12:34:15.878Z,1.20
2019-05-30T12:39:08.774Z,1.40
2019-05-30T12:44:01.330Z,2.02
2019-05-30T12:48:55.133Z,1.30
2019-05-30T12:53:47.911Z,1.10
2019-05-30T12:58:40.395Z,1.10
2019-05-30T13:03:33.115Z,1.20
2019-05-30T13:08:27.393Z,1.10
2019-05-30T13:13:24.160Z,1.20
2019-05-30T13:18:19.934Z,1.20
2019-05-30T13:23:12.635Z,1.10
2019-05-30T13:28:08.115Z,1.10
2019-05-30T13:32:58.720Z,1.20
2019-05-30T13:37:51.032Z,1.02
2019-05-30T13:42:43.224Z,1.10
2019-05-30T13:47:36.548Z,1.30
2019-05-30T13:52:28.563Z,1.10
2019-05-30T13:57:21.513Z,1.10
2019-05-30T14:02:13.730Z,1.40
2019-05-30T14:07:06.402Z,1.20
2019-05-30T14:11:58.907Z,1.40
2019-05-30T14:16:52.384Z,1.20
2019-05-30T14:21:45.138Z,1.47
2019-05-30T14:26:37.609Z,1.10
2019-05-30T14:31:30.299Z,1.30
2019-05-30T14:36:22.957Z,1.25
2019-05-30T14:41:15.368Z,0.90
2019-05-30T14:46:08.334Z,1.40
2019-05-30T14:51:00.848Z,1.65
2019-05-30T14:55:53.369Z,1.50
2019-05-30T15:00:45.873Z,1.20
2019-05-30T15:05:38.249Z,1.60
2019-05-30T15:10:30.971Z,2.00
2019-05-30T15:15:23.654Z,1.70
2019-05-30T15:20:27.659Z,2.00
2019-05-30T15:25:20.832Z,1.50
2019-05-30T15:30:13.053Z,1.30
2019-05-30T15:35:06.763Z,1.60
2019-05-30T15:39:59.287Z,1.72
2019-05-30T15:44:51.781Z,2.65
2019-05-30T15:49:44.192Z,1.90
2019-05-30T15:54:36.732Z,1.70
2019-05-30T15:59:33.755Z,1.40
2019-05-30T16:04:26.537Z,1.72
2019-05-30T16:09:22.158Z,1.60
2019-05-30T16:14:17.324Z,2.37
2019-05-30T16:19:19.572Z,1.72
2019-05-30T16:24:06.429Z,1.90
2019-05-30T16:28:58.579Z,1.60
2019-05-30T16:33:51.087Z,2.12
2019-05-30T16:38:43.313Z,2.00
2019-05-30T16:43:35.738Z,2.10
2019-05-30T16:48:28.047Z,2.45
2019-05-30T16:53:23.139Z,1.80
2019-05-30T16:58:15.369Z,2.22
2019-05-30T17:03:07.556Z,2.80
2019-05-30T17:08:00.216Z,2.58
2019-05-30T17:12:52.709Z,2.33
2019-05-30T17:17:45.233Z,2.35
2019-05-30T17:22:37.477Z,2.90
2019-05-30T17:27:29.877Z,2.27
2019-05-30T17:32:21.966Z,2.60
2019-05-30T17:37:14.451Z,3.15
2019-05-30T17:42:06.930Z,3.50
2019-05-30T17:46:59.416Z,7.75
2019-05-30T17:51:52.125Z,7.45
2019-05-30T17:56:44.475Z,4.15
2019-05-30T18:01:37.114Z,6.15
2019-05-30T18:06:30.786Z,5.47
2019-05-30T18:11:22.924Z,3.40
2019-05-30T18:16:15.229Z,6.03
2019-05-30T18:21:08.253Z,7.83
2019-05-30T18:26:00.774Z,3.00
2019-05-30T18:30:53.182Z,3.35
2019-05-30T18:35:45.821Z,3.37
2019-05-30T18:40:39.292Z,2.10
2019-05-30T18:45:39.216Z,3.40
2019-05-30T18:50:31.708Z,2.45
2019-05-30T18:55:24.578Z,2.00
2019-05-30T19:00:18.338Z,5.12
2019-05-30T19:05:10.990Z,3.72
2019-05-30T19:10:04.517Z,5.37
2019-05-30T19:14:57.179Z,7.60
2019-05-30T19:19:51.341Z,4.05
2019-05-30T19:24:44.117Z,2.47
2019-05-30T19:29:39.018Z,4.25
2019-05-30T19:34:33.045Z,2.05
2019-05-30T19:39:25.178Z,2.90
2019-05-30T19:44:18.431Z,2.42
2019-05-30T19:49:11.165Z,6.17
2019-05-30T19:54:05.452Z,4.80
2019-05-30T19:58:59.821Z,2.85
2019-05-30T20:03:52.166Z,5.08
2019-05-30T20:08:55.120Z,2.92
2019-05-30T20:13:39.209Z,3.80
2019-05-30T20:18:32.080Z,2.52
2019-05-30T20:23:24.477Z,3.05
2019-05-30T20:28:17.655Z,16.02
2019-05-30T20:33:10.248Z,6.92
2019-05-30T20:38:02.488Z,5.10
2019-05-30T20:42:55.545Z,7.80
2019-05-30T20:47:47.895Z,3.42
2019-05-30T20:52:42.283Z,4.10
2019-05-30T20:57:34.421Z,4.28
2019-05-30T21:02:29.387Z,4.10
2019-05-30T21:07:21.415Z,4.00
2019-05-30T21:12:15.867Z,3.30
2019-05-30T21:17:08.400Z,3.20
2019-05-30T21:22:00.488Z,3.50
2019-05-30T21:26:53.039Z,3.35
2019-05-30T21:31:47.550Z,3.10
2019-05-30T21:36:40.322Z,2.62
2019-05-30T21:41:32.629Z,2.65
2019-05-30T21:46:25.142Z,2.45
2019-05-30T21:51:17.700Z,3.17
2019-05-30T21:56:12.931Z,2.30
2019-05-30T22:01:19.376Z,3.15
2019-05-30T22:06:11.920Z,2.47
2019-05-30T22:11:04.644Z,3.12
2019-05-30T22:15:57.295Z,3.70
2019-05-30T22:20:49.985Z,4.03
2019-05-30T22:25:42.423Z,3.08
2019-05-30T22:30:35.188Z,2.85
2019-05-30T22:35:27.643Z,2.40
2019-05-30T22:40:19.984Z,2.52
2019-05-30T22:45:12.460Z,2.80
2019-05-30T22:50:07.145Z,3.08
2019-05-30T22:54:59.430Z,2.77
2019-05-30T22:59:53.062Z,2.45
2019-05-30T23:04:45.969Z,2.47
2019-05-30T23:09:38.814Z,2.40
2019-05-30T23:14:31.093Z,2.83
2019-05-30T23:19:23.837Z,2.70
2019-05-30T23:24:16.473Z,2.77
2019-05-30T23:29:09.291Z,2.77
2019-05-30T23:34:01.723Z,2.83
2019-05-30T23:38:54.935Z,2.35
2019-05-30T23:43:57.925Z,2.40
2019-05-30T23:48:42.231Z,2.62
2019-05-30T23:53:34.205Z,2.72
2019-05-30T23:58:26.581Z,3.15
